createdAt,value
2018-10-21T00:01:08.049Z,93831.91
2018-10-21T00:03:36.190Z,93829.14
2018-10-21T00:06:04.296Z,93822.05
2018-10-21T00:08:32.370Z,93821.22
2018-10-21T00:11:00.414Z,93817.41
2018-10-21T00:13:28.449Z,93813.42
2018-10-21T00:15:56.504Z,93812.03
2018-10-21T00:18:24.657Z,93805.34
2018-10-21T00:20:52.628Z,93802.63
2018-10-21T00:23:20.744Z,93807.00
2018-10-21T00:25:48.893Z,93806.64
2018-10-21T00:28:16.972Z,93801.06
2018-10-21T00:30:44.966Z,93802.36
2018-10-21T00:33:13.163Z,93801.45
2018-10-21T00:35:41.141Z,93796.50
2018-10-21T00:38:09.165Z,93795.86
2018-10-21T00:40:37.203Z,93790.95
2018-10-21T00:43:05.496Z,93794.45
2018-10-21T00:45:33.695Z,93792.50
2018-10-21T00:48:01.832Z,93793.61
2018-10-21T00:50:29.898Z,93790.00
2018-10-21T00:52:57.924Z,93783.95
2018-10-21T00:55:26.234Z,93786.89
2018-10-21T00:57:54.339Z,93781.76
2018-10-21T01:00:22.431Z,93782.72
2018-10-21T01:02:50.518Z,93781.73
2018-10-21T01:05:18.560Z,93777.84
2018-10-21T01:07:46.811Z,93783.48
2018-10-21T01:10:14.874Z,93779.86
2018-10-21T01:12:42.930Z,93783.48
2018-10-21T01:15:12.169Z,93778.75
2018-10-21T01:17:40.336Z,93783.48
2018-10-21T01:20:10.724Z,93779.80
2018-10-21T01:22:38.917Z,93775.35
2018-10-21T01:25:07.954Z,93774.87
2018-10-21T01:27:36.180Z,93765.04
2018-10-21T01:30:05.221Z,93772.92
2018-10-21T01:32:33.290Z,93767.89
2018-10-21T01:35:01.371Z,93767.55
2018-10-21T01:37:29.606Z,93762.81
2018-10-21T01:41:01.116Z,93758.44
2018-10-21T01:43:30.386Z,93759.63
2018-10-21T01:45:58.825Z,93758.33
2018-10-21T01:48:30.685Z,93753.03
2018-10-21T01:50:58.763Z,93753.50
2018-10-21T01:53:26.870Z,93752.09
2018-10-21T01:55:55.034Z,93747.09
2018-10-21T01:58:23.076Z,93748.94
2018-10-21T02:00:51.234Z,93747.17
2018-10-21T02:03:19.383Z,93744.66
2018-10-21T02:05:47.875Z,93744.85
2018-10-21T02:08:15.925Z,93747.80
2018-10-21T02:10:43.994Z,93743.44
2018-10-21T02:13:12.109Z,93742.97
2018-10-21T02:15:40.133Z,93743.61
2018-10-21T02:18:08.216Z,93744.44
2018-10-21T02:20:36.356Z,93744.24
2018-10-21T02:23:04.573Z,93739.41
2018-10-21T02:25:32.810Z,93739.29
2018-10-21T02:28:00.877Z,93738.34
2018-10-21T02:30:30.124Z,93742.67
2018-10-21T02:32:58.829Z,93746.14
2018-10-21T02:35:26.929Z,93739.53
2018-10-21T02:37:55.530Z,93740.78
2018-10-21T02:41:40.972Z,93738.41
2018-10-21T02:44:10.209Z,93736.86
2018-10-21T02:46:39.046Z,93740.19
2018-10-21T02:49:08.020Z,93740.27
2018-10-21T02:51:36.269Z,93741.17
2018-10-21T02:54:04.833Z,93734.69
2018-10-21T02:56:32.927Z,93737.83
2018-10-21T02:59:00.997Z,93734.95
2018-10-21T03:01:29.235Z,93744.44
2018-10-21T03:03:57.419Z,93742.83
2018-10-21T03:06:25.759Z,93742.13
2018-10-21T03:08:53.859Z,93742.52
2018-10-21T03:11:22.035Z,93745.87
2018-10-21T03:13:50.180Z,93740.06
2018-10-21T03:16:18.443Z,93740.55
2018-10-21T03:18:47.104Z,93744.08
2018-10-21T03:21:15.901Z,93743.06
2018-10-21T03:23:44.675Z,93742.23
2018-10-21T03:26:13.107Z,93742.23
2018-10-21T03:28:41.621Z,93748.17
2018-10-21T03:31:10.468Z,93743.56
2018-10-21T03:33:39.182Z,93738.59
2018-10-21T03:36:07.606Z,93734.11
2018-10-21T03:38:36.218Z,93731.73
2018-10-21T03:41:04.968Z,93731.84
2018-10-21T03:43:33.447Z,93733.88
2018-10-21T03:46:02.120Z,93733.26
2018-10-21T03:48:30.617Z,93735.58
2018-10-21T03:50:59.291Z,93732.46
2018-10-21T03:53:27.750Z,93737.21
2018-10-21T03:55:56.485Z,93727.06
2018-10-21T03:58:24.897Z,93725.70
2018-10-21T04:00:53.211Z,93725.47
2018-10-21T04:03:21.418Z,93723.73
2018-10-21T04:05:49.589Z,93717.88
2018-10-21T04:08:17.720Z,93714.47
2018-10-21T04:10:45.741Z,93719.17
2018-10-21T04:13:13.955Z,93719.06
2018-10-21T04:15:42.491Z,93722.70
2018-10-21T04:18:10.654Z,93718.25
2018-10-21T04:20:38.948Z,93716.26
2018-10-21T04:23:07.136Z,93718.47
2018-10-21T04:25:36.701Z,93720.55
2018-10-21T04:28:05.682Z,93712.55
2018-10-21T04:30:36.251Z,93714.42
2018-10-21T04:33:10.593Z,93706.96
2018-10-21T04:35:39.345Z,93712.66
2018-10-21T04:39:21.685Z,93707.93
2018-10-21T04:41:50.356Z,93710.48
2018-10-21T04:44:18.968Z,93708.06
2018-10-21T04:46:47.821Z,93700.54
2018-10-21T04:49:16.398Z,93704.45
2018-10-21T04:51:45.071Z,93702.33
2018-10-21T04:54:13.443Z,93707.50
2018-10-21T04:56:42.112Z,93704.80
2018-10-21T04:59:11.180Z,93699.64
2018-10-21T05:01:39.940Z,93703.09
2018-10-21T05:04:08.802Z,93703.58
2018-10-21T05:06:37.163Z,93707.56
2018-10-21T05:09:06.485Z,93700.91
2018-10-21T05:11:35.199Z,93701.60
2018-10-21T05:14:03.874Z,93697.52
2018-10-21T05:16:32.353Z,93703.55
2018-10-21T05:19:00.850Z,93698.31
2018-10-21T05:21:29.618Z,93699.82
2018-10-21T05:23:58.275Z,93703.63
2018-10-21T05:26:26.811Z,93703.63
2018-10-21T05:28:55.594Z,93709.31
2018-10-21T05:31:24.297Z,93709.61
2018-10-21T05:33:53.073Z,93706.98
2018-10-21T05:36:21.602Z,93706.03
2018-10-21T05:38:50.216Z,93705.20
2018-10-21T05:41:19.435Z,93708.50
2018-10-21T05:43:48.430Z,93714.33
2018-10-21T05:46:53.435Z,93721.89
2018-10-21T05:49:22.363Z,93729.05
2018-10-21T05:51:51.728Z,93723.89
2018-10-21T05:54:21.759Z,93727.87
2018-10-21T05:56:51.191Z,93731.83
2018-10-21T05:59:19.985Z,93735.94
2018-10-21T06:01:49.457Z,93737.28
2018-10-21T06:04:18.416Z,93734.95
2018-10-21T06:06:47.022Z,93737.03
2018-10-21T06:09:15.860Z,93742.19
2018-10-21T06:11:44.732Z,93745.33
2018-10-21T06:14:13.758Z,93752.81
2018-10-21T06:17:52.275Z,93744.33
2018-10-21T06:20:24.529Z,93752.34
2018-10-21T06:22:53.772Z,93748.10
2018-10-21T06:25:22.467Z,93752.03
2018-10-21T06:27:51.083Z,93754.98
2018-10-21T06:30:19.998Z,93754.03
2018-10-21T06:32:49.050Z,93755.79
2018-10-21T06:35:18.132Z,93761.16
2018-10-21T06:37:47.233Z,93751.55
2018-10-21T06:40:15.985Z,93747.95
2018-10-21T06:42:44.919Z,93751.47
2018-10-21T06:45:14.327Z,93747.13
2018-10-21T06:47:43.112Z,93746.77
2018-10-21T06:50:18.323Z,93750.64
2018-10-21T06:52:47.416Z,93747.39
2018-10-21T06:55:16.022Z,93751.11
2018-10-21T06:57:45.395Z,93750.16
2018-10-21T07:00:14.087Z,93745.84
2018-10-21T07:02:42.728Z,93748.84
2018-10-21T07:05:23.006Z,93755.06
2018-10-21T07:07:51.930Z,93751.55
2018-10-21T07:10:21.149Z,93762.44
2018-10-21T07:12:50.362Z,93760.03
2018-10-21T07:15:19.479Z,93756.58
2018-10-21T07:17:48.348Z,93758.70
2018-10-21T07:20:17.102Z,93762.78
2018-10-21T07:22:45.864Z,93750.50
2018-10-21T07:25:14.547Z,93750.23
2018-10-21T07:27:43.824Z,93753.84
2018-10-21T07:30:13.363Z,93750.73
2018-10-21T07:32:42.982Z,93752.44
2018-10-21T07:35:14.221Z,93752.48
2018-10-21T07:37:43.526Z,93746.06
2018-10-21T07:40:13.721Z,93746.84
2018-10-21T07:42:42.450Z,93750.58
2018-10-21T07:45:11.344Z,93752.73
2018-10-21T07:47:40.308Z,93749.42
2018-10-21T07:50:08.933Z,93751.55
2018-10-21T07:52:37.504Z,93745.98
2018-10-21T07:55:05.981Z,93743.32
2018-10-21T07:57:34.837Z,93743.42
2018-10-21T08:00:03.613Z,93739.78
2018-10-21T08:02:32.531Z,93739.94
2018-10-21T08:05:01.426Z,93737.48
2018-10-21T08:07:41.160Z,93736.94
2018-10-21T08:10:10.078Z,93736.59
2018-10-21T08:12:38.637Z,93732.05
2018-10-21T08:15:07.978Z,93735.66
2018-10-21T08:17:36.788Z,93737.17
2018-10-21T08:20:06.120Z,93737.97
2018-10-21T08:22:34.824Z,93733.09
2018-10-21T08:25:03.851Z,93735.28
2018-10-21T08:27:32.678Z,93734.09
2018-10-21T08:30:01.698Z,93733.14
2018-10-21T08:32:31.028Z,93732.73
2018-10-21T08:35:00.735Z,93731.72
2018-10-21T08:37:29.582Z,93740.42
2018-10-21T08:39:59.085Z,93736.98
2018-10-21T08:42:28.090Z,93744.12
2018-10-21T08:44:56.728Z,93735.37
2018-10-21T08:47:26.724Z,93738.34
2018-10-21T08:49:56.135Z,93740.03
2018-10-21T08:52:25.061Z,93732.57
2018-10-21T08:54:54.096Z,93729.13
2018-10-21T08:57:23.502Z,93729.51
2018-10-21T08:59:52.322Z,93731.92
2018-10-21T09:02:21.090Z,93736.35
2018-10-21T09:04:50.107Z,93740.38
2018-10-21T09:07:19.184Z,93738.45
2018-10-21T09:09:48.194Z,93734.59
2018-10-21T09:12:16.896Z,93738.48
2018-10-21T09:14:46.565Z,93741.94
2018-10-21T09:17:15.750Z,93744.92
2018-10-21T09:19:44.856Z,93745.65
2018-10-21T09:22:14.324Z,93751.59
2018-10-21T09:24:43.586Z,93749.61
2018-10-21T09:27:13.348Z,93742.75
2018-10-21T09:29:42.915Z,93740.23
2018-10-21T09:32:11.982Z,93737.78
2018-10-21T09:34:41.133Z,93729.08
2018-10-21T09:37:10.531Z,93718.48
2018-10-21T09:39:42.887Z,93721.19
2018-10-21T09:42:11.959Z,93720.09
2018-10-21T09:44:40.764Z,93722.16
2018-10-21T09:47:09.445Z,93719.69
2018-10-21T09:49:38.855Z,93717.80
2018-10-21T09:52:07.903Z,93722.64
2018-10-21T09:54:36.853Z,93719.20
2018-10-21T09:57:06.044Z,93720.55
2018-10-21T09:59:34.973Z,93717.59
2018-10-21T10:02:09.085Z,93712.02
2018-10-21T10:04:38.375Z,93709.14
2018-10-21T10:07:07.496Z,93711.75
2018-10-21T10:09:39.191Z,93707.86
2018-10-21T10:12:08.993Z,93703.00
2018-10-21T10:14:37.613Z,93702.57
2018-10-21T10:17:06.293Z,93693.22
2018-10-21T10:19:34.901Z,93695.88
2018-10-21T10:22:03.532Z,93695.67
2018-10-21T10:24:32.086Z,93696.73
2018-10-21T10:27:00.902Z,93698.66
2018-10-21T10:29:30.895Z,93690.20
2018-10-21T10:32:00.117Z,93686.45
2018-10-21T10:34:28.665Z,93690.04
2018-10-21T10:36:57.664Z,93690.86
2018-10-21T10:39:26.199Z,93691.34
2018-10-21T10:41:54.872Z,93685.14
2018-10-21T10:44:23.359Z,93686.94
2018-10-21T10:46:51.925Z,93683.49
2018-10-21T10:49:20.704Z,93676.24
2018-10-21T10:51:49.347Z,93685.73
2018-10-21T10:54:17.966Z,93681.36
2018-10-21T10:56:46.058Z,93676.95
2018-10-21T10:59:14.185Z,93680.99
2018-10-21T11:01:42.716Z,93679.52
2018-10-21T11:04:10.790Z,93686.07
2018-10-21T11:06:39.295Z,93683.33
2018-10-21T11:09:09.203Z,93675.69
2018-10-21T11:11:37.442Z,93682.00
2018-10-21T11:14:05.954Z,93683.30
2018-10-21T11:16:34.248Z,93680.45
2018-10-21T11:19:02.524Z,93683.53
2018-10-21T11:21:30.739Z,93681.16
2018-10-21T11:23:59.013Z,93678.67
2018-10-21T11:26:27.227Z,93682.34
2018-10-21T11:28:55.645Z,93676.08
2018-10-21T11:31:24.046Z,93673.81
2018-10-21T11:33:52.445Z,93678.27
2018-10-21T11:36:20.964Z,93672.66
2018-10-21T11:38:49.497Z,93673.14
2018-10-21T11:41:17.591Z,93673.14
2018-10-21T11:43:45.717Z,93671.90
2018-10-21T11:46:14.514Z,93668.47
2018-10-21T11:48:42.854Z,93666.08
2018-10-21T11:51:12.051Z,93663.27
2018-10-21T11:53:40.375Z,93666.67
2018-10-21T11:56:08.668Z,93667.14
2018-10-21T11:58:37.348Z,93672.23
2018-10-21T12:01:06.192Z,93668.32
2018-10-21T12:03:34.836Z,93676.13
2018-10-21T12:06:03.473Z,93673.31
2018-10-21T12:08:33.830Z,93676.04
2018-10-21T12:11:04.894Z,93676.20
2018-10-21T12:13:36.960Z,93677.80
2018-10-21T12:16:05.974Z,93679.47
2018-10-21T12:18:34.468Z,93682.43
2018-10-21T12:21:03.794Z,93678.38
2018-10-21T12:23:32.936Z,93678.84
2018-10-21T12:26:02.158Z,93683.72
2018-10-21T12:28:31.449Z,93678.12
2018-10-21T12:31:00.868Z,93683.09
2018-10-21T12:33:31.866Z,93673.73
2018-10-21T12:36:00.633Z,93678.96
2018-10-21T12:38:29.052Z,93675.06
2018-10-21T12:40:57.468Z,93675.77
2018-10-21T12:43:26.042Z,93672.34
2018-10-21T12:45:54.570Z,93671.27
2018-10-21T12:48:23.106Z,93666.03
2018-10-21T12:50:51.820Z,93673.26
2018-10-21T12:53:20.324Z,93676.01
2018-10-21T12:55:50.313Z,93664.65
2018-10-21T12:58:19.265Z,93667.42
2018-10-21T13:00:47.938Z,93666.36
2018-10-21T13:03:16.612Z,93668.05
2018-10-21T13:05:45.232Z,93668.86
2018-10-21T13:08:13.711Z,93666.03
2018-10-21T13:10:42.020Z,93671.44
2018-10-21T13:13:10.864Z,93679.09
2018-10-21T13:15:39.446Z,93674.13
2018-10-21T13:18:09.631Z,93680.58
2018-10-21T13:20:38.366Z,93677.42
2018-10-21T13:23:06.980Z,93680.17
2018-10-21T13:25:36.056Z,93679.31
2018-10-21T13:28:05.143Z,93678.97
2018-10-21T13:30:35.212Z,93683.23
2018-10-21T13:33:03.820Z,93684.33
2018-10-21T13:35:32.000Z,93677.91
2018-10-21T13:38:00.320Z,93683.13
2018-10-21T13:40:28.807Z,93687.17
2018-10-21T13:42:57.131Z,93686.31
2018-10-21T13:45:25.378Z,93694.53
2018-10-21T13:47:53.691Z,93696.84
2018-10-21T13:50:21.898Z,93697.37
2018-10-21T13:52:50.333Z,93699.84
2018-10-21T13:55:18.798Z,93700.13
2018-10-21T13:57:47.130Z,93694.08
2018-10-21T14:00:15.577Z,93694.81
2018-10-21T14:02:43.789Z,93697.17
2018-10-21T14:05:12.120Z,93689.93
2018-10-21T14:07:40.535Z,93696.06
2018-10-21T14:10:09.244Z,93696.13
2018-10-21T14:12:37.539Z,93694.56
2018-10-21T14:15:06.281Z,93696.31
2018-10-21T14:17:34.657Z,93694.28
2018-10-21T14:20:03.070Z,93700.70
2018-10-21T14:22:31.504Z,93699.62
2018-10-21T14:25:00.218Z,93698.16
2018-10-21T14:27:28.485Z,93704.48
2018-10-21T14:29:57.140Z,93700.36
2018-10-21T14:32:25.596Z,93703.86
2018-10-21T14:34:53.923Z,93709.42
2018-10-21T14:37:22.239Z,93707.45
2018-10-21T14:39:50.765Z,93701.57
2018-10-21T14:42:19.391Z,93700.68
2018-10-21T14:44:47.754Z,93703.48
2018-10-21T14:47:16.115Z,93702.81
2018-10-21T14:49:44.804Z,93705.52
2018-10-21T14:52:13.383Z,93703.61
2018-10-21T14:54:42.139Z,93710.81
2018-10-21T14:57:10.624Z,93712.71
2018-10-21T14:59:39.773Z,93710.95
2018-10-21T15:02:09.465Z,93714.86
2018-10-21T15:04:38.850Z,93718.25
2018-10-21T15:07:07.355Z,93725.70
2018-10-21T15:09:35.738Z,93717.55
2018-10-21T15:12:04.339Z,93721.38
2018-10-21T15:14:33.114Z,93721.31
2018-10-21T15:17:02.566Z,93728.56
2018-10-21T15:19:31.522Z,93722.45
2018-10-21T15:21:59.726Z,93727.22
2018-10-21T15:24:28.035Z,93725.75
2018-10-21T15:26:57.812Z,93727.22
2018-10-21T15:29:26.281Z,93737.16
2018-10-21T15:31:54.627Z,93732.73
2018-10-21T15:34:22.855Z,93740.35
2018-10-21T15:36:52.243Z,93745.08
2018-10-21T15:39:22.601Z,93743.50
2018-10-21T15:41:52.895Z,93744.89
2018-10-21T15:44:23.413Z,93752.77
2018-10-21T15:46:51.960Z,93750.65
2018-10-21T15:49:20.194Z,93751.09
2018-10-21T15:51:48.649Z,93751.21
2018-10-21T15:54:16.908Z,93762.99
2018-10-21T15:56:45.410Z,93768.94
2018-10-21T15:59:14.404Z,93765.84
2018-10-21T16:01:43.645Z,93767.40
2018-10-21T16:04:11.958Z,93767.75
2018-10-21T16:06:40.500Z,93774.49
2018-10-21T16:09:12.350Z,93770.81
2018-10-21T16:11:41.898Z,93775.52
2018-10-21T16:14:11.645Z,93782.84
2018-10-21T16:16:41.374Z,93782.92
2018-10-21T16:19:10.443Z,93794.06
2018-10-21T16:21:39.014Z,93802.52
2018-10-21T16:24:07.213Z,93802.44
2018-10-21T16:26:35.543Z,93800.47
2018-10-21T16:29:03.845Z,93805.01
2018-10-21T16:31:32.032Z,93807.52
2018-10-21T16:34:00.290Z,93810.67
2018-10-21T16:36:28.364Z,93807.84
2018-10-21T16:38:56.770Z,93811.66
2018-10-21T16:41:27.276Z,93816.83
2018-10-21T16:43:55.403Z,93812.06
2018-10-21T16:46:23.821Z,93809.47
2018-10-21T16:48:52.049Z,93804.75
2018-10-21T16:51:20.361Z,93808.91
2018-10-21T16:53:48.768Z,93812.70
2018-10-21T16:56:16.991Z,93814.34
2018-10-21T16:58:45.262Z,93817.10
2018-10-21T17:01:13.796Z,93822.05
2018-10-21T17:03:43.227Z,93821.31
2018-10-21T17:06:11.536Z,93823.03
2018-10-21T17:08:39.913Z,93823.82
2018-10-21T17:11:09.257Z,93826.17
2018-10-21T17:13:37.666Z,93824.09
2018-10-21T17:16:08.673Z,93824.84
2018-10-21T17:18:37.090Z,93830.66
2018-10-21T17:21:07.372Z,93834.02
2018-10-21T17:23:36.101Z,93835.48
2018-10-21T17:26:04.604Z,93838.62
2018-10-21T17:28:32.982Z,93838.67
2018-10-21T17:31:01.937Z,93838.22
2018-10-21T17:33:30.667Z,93836.09
2018-10-21T17:35:58.956Z,93838.69
2018-10-21T17:38:27.226Z,93828.24
2018-10-21T17:40:55.768Z,93826.19
2018-10-21T17:43:24.400Z,93833.63
2018-10-21T17:45:52.681Z,93842.92
2018-10-21T17:48:20.924Z,93842.23
2018-10-21T17:50:49.047Z,93844.80
2018-10-21T17:53:17.574Z,93846.45
2018-10-21T17:55:46.492Z,93845.23
2018-10-21T17:58:15.019Z,93848.84
2018-10-21T18:00:43.424Z,93851.44
2018-10-21T18:03:11.623Z,93850.75
2018-10-21T18:05:39.864Z,93851.97
2018-10-21T18:08:08.245Z,93851.93
2018-10-21T18:10:36.778Z,93851.61
2018-10-21T18:13:05.271Z,93852.22
2018-10-21T18:15:33.536Z,93851.70
2018-10-21T18:18:01.710Z,93853.66
2018-10-21T18:20:30.119Z,93851.68
2018-10-21T18:22:58.521Z,93848.26
2018-10-21T18:25:26.733Z,93848.04
2018-10-21T18:27:55.157Z,93848.04
2018-10-21T18:30:23.387Z,93849.41
2018-10-21T18:32:51.735Z,93849.33
2018-10-21T18:35:20.045Z,93855.38
2018-10-21T18:37:48.532Z,93860.55
2018-10-21T18:40:17.317Z,93864.41
2018-10-21T18:42:45.582Z,93862.83
2018-10-21T18:45:14.769Z,93867.33
2018-10-21T18:47:43.573Z,93870.34
2018-10-21T18:50:13.202Z,93874.00
2018-10-21T18:52:41.868Z,93875.23
2018-10-21T18:55:12.567Z,93873.25
2018-10-21T18:57:43.569Z,93875.69
2018-10-21T19:00:15.108Z,93876.89
2018-10-21T19:02:43.590Z,93879.73
2018-10-21T19:05:12.351Z,93882.88
2018-10-21T19:07:40.400Z,93874.34
2018-10-21T19:10:12.424Z,93881.50
2018-10-21T19:12:42.474Z,93881.58
2018-10-21T19:15:13.160Z,93884.86
2018-10-21T19:17:41.690Z,93881.79
2018-10-21T19:20:12.443Z,93875.84
2018-10-21T19:22:40.917Z,93883.69
2018-10-21T19:25:10.751Z,93890.16
2018-10-21T19:27:39.283Z,93888.64
2018-10-21T19:30:08.467Z,93888.41
2018-10-21T19:32:36.954Z,93890.39
2018-10-21T19:35:05.985Z,93892.41
2018-10-21T19:37:34.718Z,93881.86
2018-10-21T19:40:05.011Z,93891.06
2018-10-21T19:42:33.790Z,93895.42
2018-10-21T19:45:02.267Z,93891.89
2018-10-21T19:47:31.118Z,93895.34
2018-10-21T19:49:59.807Z,93897.08
2018-10-21T19:52:28.252Z,93904.95
2018-10-21T19:54:57.756Z,93911.15
2018-10-21T19:57:27.132Z,93907.94
2018-10-21T19:59:56.439Z,93907.78
2018-10-21T20:02:25.047Z,93910.39
2018-10-21T20:04:53.608Z,93920.66
2018-10-21T20:07:22.171Z,93913.52
2018-10-21T20:09:50.781Z,93906.13
2018-10-21T20:12:19.285Z,93909.61
2018-10-21T20:14:47.711Z,93910.67
2018-10-21T20:17:16.288Z,93915.45
2018-10-21T20:19:45.066Z,93919.25
2018-10-21T20:22:14.110Z,93922.91
2018-10-21T20:24:42.870Z,93926.72
2018-10-21T20:27:11.406Z,93922.12
2018-10-21T20:29:40.056Z,93917.77
2018-10-21T20:32:08.774Z,93918.59
2018-10-21T20:34:37.381Z,93919.66
2018-10-21T20:37:06.093Z,93915.52
2018-10-21T20:39:34.670Z,93919.16
2018-10-21T20:42:03.280Z,93911.05
2018-10-21T20:44:31.839Z,93911.87
2018-10-21T20:47:00.231Z,93910.65
2018-10-21T20:49:28.902Z,93906.66
2018-10-21T20:51:57.447Z,93914.83
2018-10-21T20:54:30.156Z,93911.48
2018-10-21T20:57:01.338Z,93920.82
2018-10-21T20:59:29.874Z,93911.81
2018-10-21T21:01:58.390Z,93916.21
2018-10-21T21:04:27.003Z,93912.06
2018-10-21T21:06:55.610Z,93904.98
2018-10-21T21:09:24.911Z,93915.17
2018-10-21T21:11:53.941Z,93910.86
2018-10-21T21:14:22.558Z,93913.51
2018-10-21T21:16:50.999Z,93915.12
2018-10-21T21:19:19.617Z,93915.50
2018-10-21T21:21:48.137Z,93921.14
2018-10-21T21:24:17.045Z,93915.72
2018-10-21T21:26:45.775Z,93915.62
2018-10-21T21:29:14.303Z,93911.38
2018-10-21T21:31:46.190Z,93925.14
2018-10-21T21:34:15.671Z,93924.44
2018-10-21T21:36:44.311Z,93921.66
2018-10-21T21:39:13.978Z,93928.06
2018-10-21T21:41:43.583Z,93925.81
2018-10-21T21:44:12.082Z,93924.73
2018-10-21T21:46:41.118Z,93927.96
2018-10-21T21:49:11.505Z,93928.02
2018-10-21T21:51:39.976Z,93933.00
2018-10-21T21:54:10.320Z,93933.59
2018-10-21T21:56:38.933Z,93929.38
2018-10-21T21:59:08.367Z,93931.84
2018-10-21T22:01:36.765Z,93931.69
2018-10-21T22:04:05.455Z,93939.58
2018-10-21T22:06:33.729Z,93935.67
2018-10-21T22:09:02.111Z,93941.03
2018-10-21T22:11:30.760Z,93941.14
2018-10-21T22:13:59.752Z,93935.09
2018-10-21T22:16:28.326Z,93936.05
2018-10-21T22:18:56.616Z,93939.53
2018-10-21T22:21:25.275Z,93930.41
2018-10-21T22:23:53.919Z,93934.05
2018-10-21T22:26:22.206Z,93928.39
2018-10-21T22:28:50.728Z,93924.28
2018-10-21T22:31:19.381Z,93927.34
2018-10-21T22:33:47.787Z,93928.45
2018-10-21T22:36:16.415Z,93930.98
2018-10-21T22:38:44.909Z,93928.70
2018-10-21T22:41:13.349Z,93933.11
2018-10-21T22:43:41.964Z,93930.82
2018-10-21T22:46:10.551Z,93924.35
2018-10-21T22:48:38.687Z,93923.45
2018-10-21T22:51:07.424Z,93923.63
2018-10-21T22:53:35.684Z,93918.09
2018-10-21T22:56:04.223Z,93923.47
2018-10-21T22:58:32.813Z,93925.80
2018-10-21T23:01:01.202Z,93921.98
2018-10-21T23:03:29.685Z,93923.03
2018-10-21T23:05:58.355Z,93919.92
2018-10-21T23:08:26.661Z,93921.28
2018-10-21T23:10:55.108Z,93922.11
2018-10-21T23:13:23.698Z,93917.22
2018-10-21T23:15:52.193Z,93918.12
2018-10-21T23:18:20.795Z,93923.03
2018-10-21T23:20:49.133Z,93920.27
2018-10-21T23:23:17.739Z,93918.64
2018-10-21T23:25:46.376Z,93917.81
2018-10-21T23:28:15.114Z,93922.59
2018-10-21T23:30:43.594Z,93919.34
2018-10-21T23:33:12.063Z,93920.45
2018-10-21T23:35:40.546Z,93917.10
2018-10-21T23:38:09.010Z,93919.23
2018-10-21T23:40:37.486Z,93912.58
2018-10-21T23:43:05.897Z,93916.47
2018-10-21T23:45:34.495Z,93910.83
2018-10-21T23:48:03.071Z,93909.76
2018-10-21T23:50:31.434Z,93908.53
2018-10-21T23:53:00.081Z,93914.59
2018-10-21T23:55:28.291Z,93911.17
2018-10-21T23:57:56.810Z,93917.70
